sensor_id;sensor_type;location;lat;lon;timestamp;pressure;altitude;pressure_sealevel;temperature;humidity
51359;BME280;37448;51.588;7.248;2023-03-16T00:00:07;101333.34;;;0.76;85.92
51359;BME280;37448;51.588;7.248;2023-03-16T00:02:12;101328.13;;;0.74;86.02
51359;BME280;37448;51.588;7.248;2023-03-16T00:04:13;101327.22;;;0.72;85.99
51359;BME280;37448;51.588;7.248;2023-03-16T00:06:13;101331.44;;;0.70;87.64
51359;BME280;37448;51.588;7.248;2023-03-16T00:08:14;101333.88;;;0.65;84.92
51359;BME280;37448;51.588;7.248;2023-03-16T00:10:15;101337.25;;;0.63;87.38
51359;BME280;37448;51.588;7.248;2023-03-16T00:12:17;101334.53;;;0.60;85.20
51359;BME280;37448;51.588;7.248;2023-03-16T00:14:18;101324.16;;;0.56;85.62
51359;BME280;37448;51.588;7.248;2023-03-16T00:16:18;101325.81;;;0.54;83.11
51359;BME280;37448;51.588;7.248;2023-03-16T00:18:18;101329.28;;;0.55;86.06
51359;BME280;37448;51.588;7.248;2023-03-16T00:20:19;101325.75;;;0.51;85.90
51359;BME280;37448;51.588;7.248;2023-03-16T00:22:21;101320.50;;;0.48;84.85
51359;BME280;37448;51.588;7.248;2023-03-16T00:24:22;101318.91;;;0.52;85.09
51359;BME280;37448;51.588;7.248;2023-03-16T00:26:24;101315.38;;;0.48;84.71
51359;BME280;37448;51.588;7.248;2023-03-16T00:28:26;101317.84;;;0.45;85.16
51359;BME280;37448;51.588;7.248;2023-03-16T00:30:26;101312.63;;;0.42;82.90
51359;BME280;37448;51.588;7.248;2023-03-16T00:32:28;101313.44;;;0.41;85.71
51359;BME280;37448;51.588;7.248;2023-03-16T00:34:29;101319.41;;;0.40;86.69
51359;BME280;37448;51.588;7.248;2023-03-16T00:36:33;101320.16;;;0.37;86.58
51359;BME280;37448;51.588;7.248;2023-03-16T00:38:39;101315.09;;;0.39;85.18
51359;BME280;37448;51.588;7.248;2023-03-16T00:40:44;101319.34;;;0.38;85.64
51359;BME280;37448;51.588;7.248;2023-03-16T00:42:45;101320.22;;;0.39;85.98
51359;BME280;37448;51.588;7.248;2023-03-16T00:44:45;101314.97;;;0.36;85.77
51359;BME280;37448;51.588;7.248;2023-03-16T00:46:46;101311.59;;;0.37;84.39
51359;BME280;37448;51.588;7.248;2023-03-16T00:48:46;101314.06;;;0.34;83.89
51359;BME280;37448;51.588;7.248;2023-03-16T00:50:46;101304.59;;;0.33;85.68
51359;BME280;37448;51.588;7.248;2023-03-16T00:52:47;101303.66;;;0.29;86.37
51359;BME280;37448;51.588;7.248;2023-03-16T00:54:48;101308.69;;;0.26;83.21
51359;BME280;37448;51.588;7.248;2023-03-16T00:56:49;101313.00;;;0.27;85.48
51359;BME280;37448;51.588;7.248;2023-03-16T00:58:49;101314.69;;;0.26;86.08
51359;BME280;37448;51.588;7.248;2023-03-16T01:00:50;101324.13;;;0.26;86.09
51359;BME280;37448;51.588;7.248;2023-03-16T01:02:53;101333.59;;;0.28;82.03
51359;BME280;37448;51.588;7.248;2023-03-16T01:04:53;101330.28;;;0.33;85.47
51359;BME280;37448;51.588;7.248;2023-03-16T01:06:54;101332.03;;;0.34;81.84
51359;BME280;37448;51.588;7.248;2023-03-16T01:08:54;101338.91;;;0.35;85.33
51359;BME280;37448;51.588;7.248;2023-03-16T01:10:54;101331.19;;;0.33;85.03
51359;BME280;37448;51.588;7.248;2023-03-16T01:12:55;101328.78;;;0.38;83.46
51359;BME280;37448;51.588;7.248;2023-03-16T01:14:56;101316.03;;;0.42;83.45
51359;BME280;37448;51.588;7.248;2023-03-16T01:16:56;101313.63;;;0.47;83.05
51359;BME280;37448;51.588;7.248;2023-03-16T01:18:56;101318.09;;;0.53;83.00
51359;BME280;37448;51.588;7.248;2023-03-16T01:20:57;101313.81;;;0.53;81.49
51359;BME280;37448;51.588;7.248;2023-03-16T01:22:57;101316.53;;;0.60;83.78
51359;BME280;37448;51.588;7.248;2023-03-16T01:24:58;101310.69;;;0.64;79.81
51359;BME280;37448;51.588;7.248;2023-03-16T01:26:58;101302.16;;;0.65;83.97
51359;BME280;37448;51.588;7.248;2023-03-16T01:28:58;101292.78;;;0.67;84.50
51359;BME280;37448;51.588;7.248;2023-03-16T01:31:10;101297.09;;;0.68;79.76
51359;BME280;37448;51.588;7.248;2023-03-16T01:33:11;101286.97;;;0.73;79.45
51359;BME280;37448;51.588;7.248;2023-03-16T01:35:12;101282.81;;;0.78;81.29
51359;BME280;37448;51.588;7.248;2023-03-16T01:37:13;101272.66;;;0.82;81.82
51359;BME280;37448;51.588;7.248;2023-03-16T01:39:28;101278.81;;;0.88;79.74
51359;BME280;37448;51.588;7.248;2023-03-16T01:41:29;101276.34;;;0.92;78.30
51359;BME280;37448;51.588;7.248;2023-03-16T01:43:31;101270.44;;;0.95;82.05
51359;BME280;37448;51.588;7.248;2023-03-16T01:48:12;101260.41;;;1.04;78.12
51359;BME280;37448;51.588;7.248;2023-03-16T01:50:13;101252.75;;;1.07;78.47
51359;BME280;37448;51.588;7.248;2023-03-16T01:52:18;101256.28;;;1.11;81.21
51359;BME280;37448;51.588;7.248;2023-03-16T01:54:30;101257.22;;;1.13;78.32
51359;BME280;37448;51.588;7.248;2023-03-16T01:56:39;101263.25;;;1.15;77.52
51359;BME280;37448;51.588;7.248;2023-03-16T01:58:43;101266.75;;;1.17;78.63
51359;BME280;37448;51.588;7.248;2023-03-16T02:00:44;101260.81;;;1.20;78.42
51359;BME280;37448;51.588;7.248;2023-03-16T02:02:55;101254.09;;;1.25;77.08
51359;BME280;37448;51.588;7.248;2023-03-16T02:05:12;101255.91;;;1.29;75.33
51359;BME280;37448;51.588;7.248;2023-03-16T02:07:15;101248.19;;;1.29;80.17
51359;BME280;37448;51.588;7.248;2023-03-16T02:09:18;101240.44;;;1.27;78.13
51359;BME280;37448;51.588;7.248;2023-03-16T02:11:18;101229.28;;;1.27;79.38
51359;BME280;37448;51.588;7.248;2023-03-16T02:13:39;101227.53;;;1.26;76.33
51359;BME280;37448;51.588;7.248;2023-03-16T02:15:40;101236.13;;;1.26;76.97
51359;BME280;37448;51.588;7.248;2023-03-16T02:17:43;101235.25;;;1.26;79.46
51359;BME280;37448;51.588;7.248;2023-03-16T02:20:03;101233.44;;;1.22;78.43
51359;BME280;37448;51.588;7.248;2023-03-16T02:22:10;101234.31;;;1.22;79.95
51359;BME280;37448;51.588;7.248;2023-03-16T02:24:13;101232.53;;;1.20;81.48
51359;BME280;37448;51.588;7.248;2023-03-16T02:28:33;101222.97;;;1.16;79.97
51359;BME280;37448;51.588;7.248;2023-03-16T02:30:37;101217.84;;;1.16;76.28
51359;BME280;37448;51.588;7.248;2023-03-16T02:32:39;101216.19;;;1.18;78.05
51359;BME280;37448;51.588;7.248;2023-03-16T02:34:40;101220.34;;;1.14;78.38
51359;BME280;37448;51.588;7.248;2023-03-16T02:36:44;101210.06;;;1.14;73.87
51359;BME280;37448;51.588;7.248;2023-03-16T02:38:46;101207.63;;;1.19;73.63
51359;BME280;37448;51.588;7.248;2023-03-16T02:41:00;101205.06;;;1.19;72.93
51359;BME280;37448;51.588;7.248;2023-03-16T02:43:21;101209.28;;;1.17;77.11
51359;BME280;37448;51.588;7.248;2023-03-16T02:45:52;101209.22;;;1.13;77.46
51359;BME280;37448;51.588;7.248;2023-03-16T02:47:54;101211.72;;;1.12;76.92
51359;BME280;37448;51.588;7.248;2023-03-16T02:49:56;101214.16;;;1.07;79.36
51359;BME280;37448;51.588;7.248;2023-03-16T02:51:56;101205.47;;;1.02;78.62
51359;BME280;37448;51.588;7.248;2023-03-16T02:53:57;101202.88;;;1.00;79.02
51359;BME280;37448;51.588;7.248;2023-03-16T02:55:59;101209.63;;;0.97;79.96
51359;BME280;37448;51.588;7.248;2023-03-16T02:58:02;101206.97;;;0.94;78.52
51359;BME280;37448;51.588;7.248;2023-03-16T03:00:03;101206.09;;;0.93;75.34
51359;BME280;37448;51.588;7.248;2023-03-16T03:02:11;101199.25;;;0.94;79.44
51359;BME280;37448;51.588;7.248;2023-03-16T03:04:12;101198.34;;;0.92;78.44
51359;BME280;37448;51.588;7.248;2023-03-16T03:06:12;101191.38;;;0.88;81.65
51359;BME280;37448;51.588;7.248;2023-03-16T03:08:13;101187.97;;;0.89;76.31
51359;BME280;37448;51.588;7.248;2023-03-16T03:10:14;101185.41;;;0.89;77.47
51359;BME280;37448;51.588;7.248;2023-03-16T03:12:15;101191.47;;;0.91;76.41
51359;BME280;37448;51.588;7.248;2023-03-16T03:14:15;101187.25;;;0.94;78.13
51359;BME280;37448;51.588;7.248;2023-03-16T03:16:17;101188.13;;;0.95;79.31
51359;BME280;37448;51.588;7.248;2023-03-16T03:18:17;101188.16;;;0.96;80.86
51359;BME280;37448;51.588;7.248;2023-03-16T03:20:17;101190.84;;;1.01;76.44
51359;BME280;37448;51.588;7.248;2023-03-16T03:22:18;101190.94;;;1.04;75.75
51359;BME280;37448;51.588;7.248;2023-03-16T03:24:19;101184.97;;;1.05;77.22
51359;BME280;37448;51.588;7.248;2023-03-16T03:26:20;101184.25;;;1.09;74.19
51359;BME280;37448;51.588;7.248;2023-03-16T03:28:22;101177.44;;;1.13;74.33
51359;BME280;37448;51.588;7.248;2023-03-16T03:30:23;101166.41;;;1.17;74.46
51359;BME280;37448;51.588;7.248;2023-03-16T03:32:23;101175.00;;;1.18;72.92
51359;BME280;37448;51.588;7.248;2023-03-16T03:34:24;101175.00;;;1.18;75.46
51359;BME280;37448;51.588;7.248;2023-03-16T03:36:25;101176.69;;;1.17;72.81
51359;BME280;37448;51.588;7.248;2023-03-16T03:38:27;101173.34;;;1.20;76.63
51359;BME280;37448;51.588;7.248;2023-03-16T03:40:28;101186.97;;;1.17;75.20
51359;BME280;37448;51.588;7.248;2023-03-16T03:42:32;101175.06;;;1.21;74.86
51359;BME280;37448;51.588;7.248;2023-03-16T03:44:32;101174.19;;;1.20;76.70
51359;BME280;37448;51.588;7.248;2023-03-16T03:46:36;101176.81;;;1.22;74.87
51359;BME280;37448;51.588;7.248;2023-03-16T03:48:36;101172.56;;;1.22;77.39
51359;BME280;37448;51.588;7.248;2023-03-16T03:50:37;101168.28;;;1.23;78.12
51359;BME280;37448;51.588;7.248;2023-03-16T03:52:58;101168.28;;;1.23;74.62
51359;BME280;37448;51.588;7.248;2023-03-16T03:55:01;101164.88;;;1.24;75.55
51359;BME280;37448;51.588;7.248;2023-03-16T03:57:02;101158.88;;;1.25;75.20
51359;BME280;37448;51.588;7.248;2023-03-16T03:59:03;101159.78;;;1.27;72.94
51359;BME280;37448;51.588;7.248;2023-03-16T04:01:22;101154.63;;;1.27;75.12
51359;BME280;37448;51.588;7.248;2023-03-16T04:03:22;101152.06;;;1.27;76.56
51359;BME280;37448;51.588;7.248;2023-03-16T04:05:23;101154.63;;;1.27;77.31
51359;BME280;37448;51.588;7.248;2023-03-16T04:07:26;101153.72;;;1.25;77.26
51359;BME280;37448;51.588;7.248;2023-03-16T04:09:30;101153.72;;;1.25;76.98
51359;BME280;37448;51.588;7.248;2023-03-16T04:11:33;101149.41;;;1.24;76.85
51359;BME280;37448;51.588;7.248;2023-03-16T04:13:33;101151.16;;;1.25;77.72
51359;BME280;37448;51.588;7.248;2023-03-16T04:15:34;101153.72;;;1.23;78.42
51359;BME280;37448;51.588;7.248;2023-03-16T04:17:43;101141.69;;;1.24;73.78
51359;BME280;37448;51.588;7.248;2023-03-16T04:19:45;101145.16;;;1.24;75.86
51359;BME280;37448;51.588;7.248;2023-03-16T04:21:49;101138.38;;;1.28;75.75
51359;BME280;37448;51.588;7.248;2023-03-16T04:23:51;101132.38;;;1.29;76.30
51359;BME280;37448;51.588;7.248;2023-03-16T04:25:54;101135.78;;;1.28;74.98
51359;BME280;37448;51.588;7.248;2023-03-16T04:27:56;101140.09;;;1.29;76.43
51359;BME280;37448;51.588;7.248;2023-03-16T04:30:00;101134.94;;;1.27;74.16
51359;BME280;37448;51.588;7.248;2023-03-16T04:32:01;101132.38;;;1.29;79.27
51359;BME280;37448;51.588;7.248;2023-03-16T04:34:05;101129.75;;;1.26;77.79
51359;BME280;37448;51.588;7.248;2023-03-16T04:36:06;101114.31;;;1.26;72.19
51359;BME280;37448;51.588;7.248;2023-03-16T04:38:10;101113.41;;;1.24;75.23
51359;BME280;37448;51.588;7.248;2023-03-16T04:40:18;101121.16;;;1.25;73.58
51359;BME280;37448;51.588;7.248;2023-03-16T04:42:26;101122.84;;;1.25;74.71
51359;BME280;37448;51.588;7.248;2023-03-16T04:44:26;101122.03;;;1.26;74.61
51359;BME280;37448;51.588;7.248;2023-03-16T04:46:27;101110.00;;;1.25;73.51
51359;BME280;37448;51.588;7.248;2023-03-16T04:48:30;101111.72;;;1.26;74.38
51359;BME280;37448;51.588;7.248;2023-03-16T04:50:35;101111.72;;;1.26;77.91
51359;BME280;37448;51.588;7.248;2023-03-16T04:52:35;101110.81;;;1.24;75.74
51359;BME280;37448;51.588;7.248;2023-03-16T04:54:36;101116.88;;;1.26;75.10
51359;BME280;37448;51.588;7.248;2023-03-16T04:56:36;101104.84;;;1.25;77.16
51359;BME280;37448;51.588;7.248;2023-03-16T04:58:44;101114.28;;;1.24;77.33
51359;BME280;37448;51.588;7.248;2023-03-16T05:00:45;101109.06;;;1.21;80.23
51359;BME280;37448;51.588;7.248;2023-03-16T05:02:54;101111.59;;;1.20;74.97
51359;BME280;37448;51.588;7.248;2023-03-16T05:04:55;101118.41;;;1.18;76.70
51359;BME280;37448;51.588;7.248;2023-03-16T05:06:55;101110.63;;;1.16;77.25
51359;BME280;37448;51.588;7.248;2023-03-16T05:09:00;101111.50;;;1.17;78.89
51359;BME280;37448;51.588;7.248;2023-03-16T05:11:01;101110.69;;;1.19;76.35
51359;BME280;37448;51.588;7.248;2023-03-16T05:13:06;101106.44;;;1.20;78.45
51359;BME280;37448;51.588;7.248;2023-03-16T05:15:08;101106.44;;;1.20;79.49
51359;BME280;37448;51.588;7.248;2023-03-16T05:17:14;101108.97;;;1.18;79.01
51359;BME280;37448;51.588;7.248;2023-03-16T05:19:15;101103.91;;;1.21;75.40
51359;BME280;37448;51.588;7.248;2023-03-16T05:21:17;101101.38;;;1.23;75.11
51359;BME280;37448;51.588;7.248;2023-03-16T05:23:27;101099.69;;;1.25;77.13
51359;BME280;37448;51.588;7.248;2023-03-16T05:25:33;101106.56;;;1.24;79.41
51359;BME280;37448;51.588;7.248;2023-03-16T05:27:37;101098.94;;;1.29;74.58
51359;BME280;37448;51.588;7.248;2023-03-16T05:29:40;101103.22;;;1.28;75.85
51359;BME280;37448;51.588;7.248;2023-03-16T05:31:45;101091.22;;;1.29;76.93
51359;BME280;37448;51.588;7.248;2023-03-16T05:33:52;101098.19;;;1.33;77.31
51359;BME280;37448;51.588;7.248;2023-03-16T05:35:54;101089.66;;;1.34;77.35
51359;BME280;37448;51.588;7.248;2023-03-16T05:37:56;101098.19;;;1.33;77.25
51359;BME280;37448;51.588;7.248;2023-03-16T05:39:57;101100.72;;;1.32;77.18
51359;BME280;37448;51.588;7.248;2023-03-16T05:41:58;101082.81;;;1.36;77.92
51359;BME280;37448;51.588;7.248;2023-03-16T05:44:03;101082.88;;;1.39;78.45
51359;BME280;37448;51.588;7.248;2023-03-16T05:46:18;101091.53;;;1.43;80.18
51359;BME280;37448;51.588;7.248;2023-03-16T05:48:18;101095.94;;;1.47;79.43
51359;BME280;37448;51.588;7.248;2023-03-16T05:50:24;101095.13;;;1.50;76.40
51359;BME280;37448;51.588;7.248;2023-03-16T05:52:25;101095.25;;;1.56;75.93
51359;BME280;37448;51.588;7.248;2023-03-16T05:54:27;101103.91;;;1.58;75.92
51359;BME280;37448;51.588;7.248;2023-03-16T05:56:27;101109.13;;;1.61;76.78
51359;BME280;37448;51.588;7.248;2023-03-16T05:58:28;101113.53;;;1.67;74.55
51359;BME280;37448;51.588;7.248;2023-03-16T06:00:28;101111.00;;;1.68;77.43
51359;BME280;37448;51.588;7.248;2023-03-16T06:02:47;101117.13;;;1.74;75.60
51359;BME280;37448;51.588;7.248;2023-03-16T06:04:48;101115.50;;;1.79;77.76
51359;BME280;37448;51.588;7.248;2023-03-16T06:06:48;101108.69;;;1.81;76.64
51359;BME280;37448;51.588;7.248;2023-03-16T06:08:55;101115.69;;;1.86;75.78
51359;BME280;37448;51.588;7.248;2023-03-16T06:10:57;101100.34;;;1.93;74.51
51359;BME280;37448;51.588;7.248;2023-03-16T06:12:58;101104.00;;;2.03;74.18
51359;BME280;37448;51.588;7.248;2023-03-16T06:14:59;101102.31;;;2.05;74.19
51359;BME280;37448;51.588;7.248;2023-03-16T06:17:02;101099.84;;;2.08;74.91
51359;BME280;37448;51.588;7.248;2023-03-16T06:19:03;101096.47;;;2.12;74.49
51359;BME280;37448;51.588;7.248;2023-03-16T06:21:06;101099.19;;;2.18;73.84
51359;BME280;37448;51.588;7.248;2023-03-16T06:23:07;101099.22;;;2.20;76.43
51359;BME280;37448;51.588;7.248;2023-03-16T06:25:10;101110.44;;;2.23;74.26
51359;BME280;37448;51.588;7.248;2023-03-16T06:27:11;101101.91;;;2.26;75.92
51359;BME280;37448;51.588;7.248;2023-03-16T06:29:27;101111.41;;;2.28;77.29
51359;BME280;37448;51.588;7.248;2023-03-16T06:31:28;101102.03;;;2.31;77.67
51359;BME280;37448;51.588;7.248;2023-03-16T06:33:29;101100.41;;;2.36;73.33
51359;BME280;37448;51.588;7.248;2023-03-16T06:35:30;101107.28;;;2.37;75.92
51359;BME280;37448;51.588;7.248;2023-03-16T06:37:45;101105.66;;;2.42;72.35
51359;BME280;37448;51.588;7.248;2023-03-16T06:40:07;101100.56;;;2.45;73.95
51359;BME280;37448;51.588;7.248;2023-03-16T06:42:08;101100.50;;;2.42;75.19
51359;BME280;37448;51.588;7.248;2023-03-16T06:44:09;101098.88;;;2.46;74.86
51359;BME280;37448;51.588;7.248;2023-03-16T06:46:14;101098.09;;;2.50;72.79
51359;BME280;37448;51.588;7.248;2023-03-16T06:48:14;101100.69;;;2.51;75.76
51359;BME280;37448;51.588;7.248;2023-03-16T06:50:15;101097.25;;;2.52;76.99
51359;BME280;37448;51.588;7.248;2023-03-16T06:52:15;101099.03;;;2.55;76.53
51359;BME280;37448;51.588;7.248;2023-03-16T06:54:16;101100.03;;;2.63;74.61
51359;BME280;37448;51.588;7.248;2023-03-16T06:56:16;101102.72;;;2.68;71.97
51359;BME280;37448;51.588;7.248;2023-03-16T06:58:19;101103.75;;;2.78;75.52
51359;BME280;37448;51.588;7.248;2023-03-16T07:00:20;101099.63;;;2.87;74.35
51359;BME280;37448;51.588;7.248;2023-03-16T07:02:20;101111.78;;;2.95;69.84
51359;BME280;37448;51.588;7.248;2023-03-16T07:04:22;101097.31;;;3.03;74.68
51359;BME280;37448;51.588;7.248;2023-03-16T07:06:23;101098.22;;;3.05;73.39
51359;BME280;37448;51.588;7.248;2023-03-16T07:08:23;101095.72;;;3.11;69.68
51359;BME280;37448;51.588;7.248;2023-03-16T07:10:24;101094.94;;;3.15;74.62
51359;BME280;37448;51.588;7.248;2023-03-16T07:12:24;101093.28;;;3.21;70.99
51359;BME280;37448;51.588;7.248;2023-03-16T07:14:26;101107.03;;;3.20;71.66
51359;BME280;37448;51.588;7.248;2023-03-16T07:16:28;101103.66;;;3.22;71.80
51359;BME280;37448;51.588;7.248;2023-03-16T07:18:32;101111.44;;;3.25;72.49
51359;BME280;37448;51.588;7.248;2023-03-16T07:20:32;101110.56;;;3.25;71.66
51359;BME280;37448;51.588;7.248;2023-03-16T07:22:38;101120.97;;;3.28;75.05
51359;BME280;37448;51.588;7.248;2023-03-16T07:24:41;101114.97;;;3.29;73.77
51359;BME280;37448;51.588;7.248;2023-03-16T07:26:42;101112.41;;;3.32;68.63
51359;BME280;37448;51.588;7.248;2023-03-16T07:28:44;101110.84;;;3.43;69.65
51359;BME280;37448;51.588;7.248;2023-03-16T07:30:45;101110.97;;;3.50;68.13
51359;BME280;37448;51.588;7.248;2023-03-16T07:32:46;101115.38;;;3.57;69.20
51359;BME280;37448;51.588;7.248;2023-03-16T07:34:47;101115.44;;;3.62;68.61
51359;BME280;37448;51.588;7.248;2023-03-16T07:36:47;101111.22;;;3.68;67.36
51359;BME280;37448;51.588;7.248;2023-03-16T07:38:48;101117.41;;;3.77;67.55
51359;BME280;37448;51.588;7.248;2023-03-16T07:40:50;101120.13;;;3.89;65.34
51359;BME280;37448;51.588;7.248;2023-03-16T07:42:56;101117.75;;;4.05;68.33
51359;BME280;37448;51.588;7.248;2023-03-16T07:45:02;101109.41;;;4.24;71.65
51359;BME280;37448;51.588;7.248;2023-03-16T07:47:04;101114.00;;;4.50;67.17
51359;BME280;37448;51.588;7.248;2023-03-16T07:49:06;101119.31;;;4.63;67.10
51359;BME280;37448;51.588;7.248;2023-03-16T07:51:10;101119.34;;;4.66;65.75
51359;BME280;37448;51.588;7.248;2023-03-16T07:53:11;101113.34;;;4.70;64.05
51359;BME280;37448;51.588;7.248;2023-03-16T07:55:15;101124.53;;;4.69;67.04
51359;BME280;37448;51.588;7.248;2023-03-16T07:57:17;101119.34;;;4.66;68.96
51359;BME280;37448;51.588;7.248;2023-03-16T07:59:18;101115.88;;;4.64;67.74
51359;BME280;37448;51.588;7.248;2023-03-16T08:01:20;101112.50;;;4.71;68.12
51359;BME280;37448;51.588;7.248;2023-03-16T08:03:22;101119.47;;;4.80;66.71
51359;BME280;37448;51.588;7.248;2023-03-16T08:05:23;101109.19;;;4.84;66.10
51359;BME280;37448;51.588;7.248;2023-03-16T08:07:30;101114.44;;;4.94;66.58
51359;BME280;37448;51.588;7.248;2023-03-16T08:09:36;101109.38;;;5.06;65.73
51359;BME280;37448;51.588;7.248;2023-03-16T08:11:39;101106.94;;;5.25;69.92
51359;BME280;37448;51.588;7.248;2023-03-16T08:13:40;101105.28;;;5.36;61.01
51359;BME280;37448;51.588;7.248;2023-03-16T08:15:47;101099.38;;;5.50;62.01
51359;BME280;37448;51.588;7.248;2023-03-16T08:17:57;101096.00;;;5.65;66.40
51359;BME280;37448;51.588;7.248;2023-03-16T08:19:59;101089.97;;;5.69;64.01
51359;BME280;37448;51.588;7.248;2023-03-16T08:22:00;101087.53;;;5.92;69.98
51359;BME280;37448;51.588;7.248;2023-03-16T08:24:03;101096.19;;;5.99;60.70
51359;BME280;37448;51.588;7.248;2023-03-16T08:26:04;101085.91;;;6.17;63.03
51359;BME280;37448;51.588;7.248;2023-03-16T08:28:09;101096.28;;;6.17;61.28
51359;BME280;37448;51.588;7.248;2023-03-16T08:30:11;101096.31;;;6.22;63.80
51359;BME280;37448;51.588;7.248;2023-03-16T08:32:15;101097.19;;;6.21;61.98
51359;BME280;37448;51.588;7.248;2023-03-16T08:34:17;101097.16;;;6.16;66.85
51359;BME280;37448;51.588;7.248;2023-03-16T08:36:18;101105.78;;;6.09;65.91
51359;BME280;37448;51.588;7.248;2023-03-16T08:38:22;101102.31;;;6.04;63.04
51359;BME280;37448;51.588;7.248;2023-03-16T08:40:24;101098.72;;;5.89;60.76
51359;BME280;37448;51.588;7.248;2023-03-16T08:42:28;101109.94;;;5.84;59.52
51359;BME280;37448;51.588;7.248;2023-03-16T08:44:33;101101.28;;;5.85;62.57
51359;BME280;37448;51.588;7.248;2023-03-16T08:46:33;101106.47;;;5.82;61.98
51359;BME280;37448;51.588;7.248;2023-03-16T08:48:35;101109.09;;;5.86;65.48
51359;BME280;37448;51.588;7.248;2023-03-16T08:50:35;101112.53;;;5.87;61.42
51359;BME280;37448;51.588;7.248;2023-03-16T08:52:36;101112.53;;;5.87;60.54
51359;BME280;37448;51.588;7.248;2023-03-16T08:54:37;101116.91;;;5.91;60.73
51359;BME280;37448;51.588;7.248;2023-03-16T08:56:38;101108.22;;;5.87;60.59
51359;BME280;37448;51.588;7.248;2023-03-16T08:58:40;101109.94;;;5.90;64.41
51359;BME280;37448;51.588;7.248;2023-03-16T09:00:45;101113.34;;;5.77;60.61
51359;BME280;37448;51.588;7.248;2023-03-16T09:02:45;101115.84;;;5.64;60.42
51359;BME280;37448;51.588;7.248;2023-03-16T09:04:46;101118.44;;;5.61;62.11
51359;BME280;37448;51.588;7.248;2023-03-16T09:06:47;101109.72;;;5.50;62.65
51359;BME280;37448;51.588;7.248;2023-03-16T09:08:50;101127.78;;;5.40;62.56
51359;BME280;37448;51.588;7.248;2023-03-16T09:10:58;101119.09;;;5.35;65.62
51359;BME280;37448;51.588;7.248;2023-03-16T09:12:59;101127.66;;;5.26;61.92
51359;BME280;37448;51.588;7.248;2023-03-16T09:14:59;101123.34;;;5.25;66.89
51359;BME280;37448;51.588;7.248;2023-03-16T09:17:00;101126.81;;;5.26;68.94
51359;BME280;37448;51.588;7.248;2023-03-16T09:19:00;101128.50;;;5.21;66.98
51359;BME280;37448;51.588;7.248;2023-03-16T09:21:04;101122.38;;;5.12;63.62
51359;BME280;37448;51.588;7.248;2023-03-16T09:23:04;101122.38;;;5.11;67.10
51359;BME280;37448;51.588;7.248;2023-03-16T09:25:06;101124.09;;;5.10;67.19
51359;BME280;37448;51.588;7.248;2023-03-16T09:27:08;101121.50;;;5.09;64.25
51359;BME280;37448;51.588;7.248;2023-03-16T09:29:08;101114.56;;;5.06;63.54
51359;BME280;37448;51.588;7.248;2023-03-16T09:31:15;101128.34;;;5.05;62.95
51359;BME280;37448;51.588;7.248;2023-03-16T09:33:15;101129.22;;;5.07;63.91
51359;BME280;37448;51.588;7.248;2023-03-16T09:35:16;101125.78;;;5.08;61.96
51359;BME280;37448;51.588;7.248;2023-03-16T09:37:16;101114.56;;;5.09;64.27
51359;BME280;37448;51.588;7.248;2023-03-16T09:39:17;101124.94;;;5.09;62.77
51359;BME280;37448;51.588;7.248;2023-03-16T09:41:36;101114.56;;;5.09;62.64
51359;BME280;37448;51.588;7.248;2023-03-16T09:43:57;101111.19;;;5.16;64.95
51359;BME280;37448;51.588;7.248;2023-03-16T09:46:09;101102.66;;;5.30;60.65
51359;BME280;37448;51.588;7.248;2023-03-16T09:48:11;101108.88;;;5.51;63.92
51359;BME280;37448;51.588;7.248;2023-03-16T09:50:30;101104.69;;;5.71;61.61
51359;BME280;37448;51.588;7.248;2023-03-16T09:52:53;101098.72;;;5.89;65.21
51359;BME280;37448;51.588;7.248;2023-03-16T09:56:59;101100.63;;;6.18;60.48
51359;BME280;37448;51.588;7.248;2023-03-16T09:59:01;101113.66;;;6.31;60.95
51359;BME280;37448;51.588;7.248;2023-03-16T10:06:08;101099.03;;;6.58;66.49
51359;BME280;37448;51.588;7.248;2023-03-16T10:08:22;101112.00;;;6.59;61.21
51359;BME280;37448;51.588;7.248;2023-03-16T10:12:34;101102.50;;;6.68;59.96
51359;BME280;37448;51.588;7.248;2023-03-16T10:14:50;101105.13;;;6.77;61.98
51359;BME280;37448;51.588;7.248;2023-03-16T10:17:12;101095.63;;;6.81;60.08
51359;BME280;37448;51.588;7.248;2023-03-16T10:19:41;101101.69;;;6.87;61.41
51359;BME280;37448;51.588;7.248;2023-03-16T10:21:42;101086.97;;;6.89;60.20
51359;BME280;37448;51.588;7.248;2023-03-16T10:23:46;101093.00;;;6.82;57.89
51359;BME280;37448;51.588;7.248;2023-03-16T10:25:49;101093.00;;;6.85;60.93
51359;BME280;37448;51.588;7.248;2023-03-16T10:27:50;101084.34;;;6.77;59.19
51359;BME280;37448;51.588;7.248;2023-03-16T10:29:51;101087.81;;;6.73;61.79
51359;BME280;37448;51.588;7.248;2023-03-16T10:31:54;101091.28;;;6.72;63.75
51359;BME280;37448;51.588;7.248;2023-03-16T10:34:04;101088.66;;;6.64;60.17
51359;BME280;37448;51.588;7.248;2023-03-16T10:36:28;101092.13;;;6.65;60.95
51359;BME280;37448;51.588;7.248;2023-03-16T10:40:38;101089.50;;;6.58;62.85
51359;BME280;37448;51.588;7.248;2023-03-16T10:42:38;101095.56;;;6.54;60.75
51359;BME280;37448;51.588;7.248;2023-03-16T10:44:39;101097.28;;;6.54;62.48
51359;BME280;37448;51.588;7.248;2023-03-16T10:46:42;101091.22;;;6.56;61.52
51359;BME280;37448;51.588;7.248;2023-03-16T10:48:55;101084.31;;;6.61;61.45
51359;BME280;37448;51.588;7.248;2023-03-16T10:51:02;101080.84;;;6.63;62.46
51359;BME280;37448;51.588;7.248;2023-03-16T10:53:24;101074.84;;;6.64;64.31
51359;BME280;37448;51.588;7.248;2023-03-16T10:55:28;101073.09;;;6.64;60.10
51359;BME280;37448;51.588;7.248;2023-03-16T10:57:35;101062.69;;;6.58;60.56
51359;BME280;37448;51.588;7.248;2023-03-16T10:59:36;101056.63;;;6.60;62.73
51359;BME280;37448;51.588;7.248;2023-03-16T11:01:37;101049.72;;;6.59;61.27
51359;BME280;37448;51.588;7.248;2023-03-16T11:03:39;101042.78;;;6.58;63.10
51359;BME280;37448;51.588;7.248;2023-03-16T11:05:40;101042.81;;;6.63;65.86
51359;BME280;37448;51.588;7.248;2023-03-16T11:07:48;101028.94;;;6.63;63.15
51359;BME280;37448;51.588;7.248;2023-03-16T11:09:54;101042.81;;;6.69;62.51